KHTL/HTL METAR and TAF weather

Enter ICAO airport designator
Station Type Date Time Source
KHTL METAR 2019/07/15 19:53 UTC NOAA

KHTL 151953Z AUTO 16007KT 10SM CLR 23/18 A3001 RMK AO2 SLP160 T02330183


Station Type Date Time Source
KHTL Decoded METAR 2019/07/15 19:53 UTC NOAA

ROSCOMMON COUNTY AIRPORT, MI, United States (KHTL) 44-21N 084-40W 351M
Jul 15, 2019 - 03:53 PM EDT / 2019.07.15 1953 UTC
Wind: from the SSE (160 degrees) at 8 MPH (7 KT):0
Visibility: 10 mile(s):0
Sky conditions: clear
Temperature: 73.9 F (23.3 C)
Dew Point: 64.9 F (18.3 C)
Relative Humidity: 73%
Pressure (altimeter): 30.01 in. Hg (1016 hPa)
ob: KHTL 151953Z AUTO 16007KT 10SM CLR 23/18 A3001 RMK AO2 SLP160 T02330183
cycle: 20

Station Type Date Time Source
KHTL TAF UTC NOAA

Error!

Example: see airport list